[source: ADDS]
METAR
EDVE 031220Z 23010KT 9999 FEW020 BKN023 02/M01 Q1007

TAF EDVE 031100Z 0312/0321 22013KT 9999 BKN020 PROB30 TEMPO 0312/0321 21015G25KT 4500 SNRA BKN007 EDDV 031220Z 23012KT 190V250 9999 BKN015 03/01 Q1006 NOSIG

TAF EDDV 031100Z 0312/0412 22013KT 9999 BKN020 PROB30 TEMPO 0312/0320 21015G25KT 4500 SNRA BKN007 BECMG 0320/0322 22008KT TEMPO 0320/0406 3500 -DZ BKN006 BECMG 0403/0406 15006KT BECMG 0406/0408 BKN008 TEMPO 0408/0412 2500 -SNRA BKN004 BECMG 0409/0412 09005KT ETHS 031120Z 24011KT 7000 OVC009 02/M00 Q1006 GRN

TAF COR ETHS 030839Z 0309/0318 25010KT 6000 NSW BKN005 BECMG 0309/0311 24012G22KT 8000 NSW BKN010 TEMPO 0313/0316 24012KT 9999 NSW SCT012 BKN030 TEMPO 0316/0318 23012KT 4000 -RASN BKN005 ETHC 031120Z 22012KT 9999 BKN016 03/M00 Q1007 WHT FCST CNL

TAF ETHC 030816Z 0309/0318 23010KT 8000 NSW BKN010 TEMPO 0309/0311 23012KT 6000 NSW BKN007 BECMG 0311/0313 23012G22KT 9000 NSW BKN015 BECMG 0313/0314 23012G22KT 9999 NSW SCT015 BKN025 EDVK 031220Z 21011KT 9999 SCT026 02/M01 Q1008

TAF EDVK 031100Z 0312/0321 20012KT 9999 BKN015 PROB40 TEMPO 0316/0321 4000 -SN BKN014
TAF
TAF EDVE 031100Z 0312/0321 22013KT 9999 BKN020 PROB30 TEMPO 0312/0321 21015G25KT 4500 SNRA BKN007

TAF EDDV 031100Z 0312/0412 22013KT 9999 BKN020 PROB30 TEMPO 0312/0320 21015G25KT 4500 SNRA BKN007 BECMG 0320/0322 22008KT TEMPO 0320/0406 3500 -DZ BKN006 BECMG 0403/0406 15006KT BECMG 0406/0408 BKN008 TEMPO 0408/0412 2500 -SNRA BKN004 BECMG 0409/0412 09005KT

TAF COR ETHS 030839Z 0309/0318 25010KT 6000 NSW BKN005 BECMG 0309/0311 24012G22KT 8000 NSW BKN010 TEMPO 0313/0316 24012KT 9999 NSW SCT012 BKN030 TEMPO 0316/0318 23012KT 4000 -RASN BKN005

TAF ETHC 030816Z 0309/0318 23010KT 8000 NSW BKN010 TEMPO 0309/0311 23012KT 6000 NSW BKN007 BECMG 0311/0313 23012G22KT 9000 NSW BKN015 BECMG 0313/0314 23012G22KT 9999 NSW SCT015 BKN025

TAF EDVK 031100Z 0312/0321 20012KT 9999 BKN015 PROB40 TEMPO 0316/0321 4000 -SN BKN014

SR / SS: 07:07 / 15:07 UTC (EDVE 2021-12-03)
Holger hat seine praktische PPL-Prüfung bestanden! Herzlichen Glückwunsch und always Happy Landings! +++ Willkommen bei der FFG, Doris! Viel Erfolg bei der Ausbildung! +++ Wir begrüßen Christian als neues Mitglied der FFG! Herzlich willkommen und always Happy Landings! +++ Wir heißen Michel, Norman und Philip als neue Flugschüler willkommen und wünschen viel Spaß und Erfolg bei der Ausbildung! +++ Simon hat seinen ersten Alleinflug absolviert! Herzlichen Glückwunsch und weiterhin Happy Landings! +++ Karsten und Fabian haben die praktische PPL-Prüfung bestanden! Gratulation und weiterhin Happy Landings! +++ Micha hat seine praktische PPL-Prüfung bestanden! Herzlichen Glückwunsch und weiterhin Happy Landings! +++ Willkommen bei der FFG, Arman! Viel Erfolg bei der Ausbildung! +++ Wir heißen Torben als neuen Flugschüler willkommen und wünschen eine erfolgreiche Ausbildung!

wenig -> mittel -> viel

Professionelle Piloten arbeiten mit Checkliste
Ausdrucken und abarbeiten!

Weiterlesen ...

 Zugang zur DFS. Auf dem FFG-Account sind alle erforderlichen Daten unserer Maschinen hinterlegt.

DFS Login

Hier gibt es die AIP mit allen erforderlichen Karten die im Abo der FFG liegen zum Download für unsere Mitglieder.

Charts Zugang
Letztes NOTAM EDVE
von 24.12.2021 0000Z bis 01.01.2022 2359Z
HOURS OF OPERATION CHANGED: NOTAM C3655/21 SUSPENDED FROM DEC 24 UNTIL JAN 01 DEC 24-26: AD PPR PPR REQ AT LEAST UNTIL DEC 23 1100 DEC [more]

Letztes NOTAM EDBC
von 02.12.2021 0931Z bis 02.03.2022 2359Z
ILS RWY 26 OUT OF SERVICE.

Letztes NOTAM EDVM
von 30.11.2021 0959Z bis 15.12.2021 2359Z
APN 2 PARTIALLY CLSD, DUE TO WIP.

Letztes NOTAM EDDV
von 03.12.2021 0916Z bis 03.12.2021 1300Z
ILS RWY 27R ON FLT CALIBRATION. DO NOT USE, FALSE INDICATION POSS.

Letztes NOTAM EDVK
von 30.11.2021 2300Z bis 31.12.2021 2259Z
COVID-19: FUEL SVC AVBL 0700-1300. OTHER TIMES O/R. FUEL SVC AFTER REQ IS MAX AVBL. UNTIL 1800. REQ MUST BE SUBMITTED BTN 0700-1700. P [more]